createdAt,value
2023-04-09T00:00:27.549Z,102142.03
2023-04-09T00:02:55.242Z,102141.16
2023-04-09T00:05:22.876Z,102140.31
2023-04-09T00:07:50.517Z,102143.22
2023-04-09T00:10:18.182Z,102139.88
2023-04-09T00:12:46.078Z,102134.72
2023-04-09T00:15:24.050Z,102132.22
2023-04-09T00:17:58.194Z,102131.63
2023-04-09T00:20:25.984Z,102132.72
2023-04-09T00:22:54.205Z,102125.06
2023-04-09T00:25:21.797Z,102125.41
2023-04-09T00:27:49.494Z,102121.19
2023-04-09T00:30:17.192Z,102115.34
2023-04-09T00:32:44.848Z,102108.56
2023-04-09T00:35:12.665Z,102107.97
2023-04-09T00:37:40.412Z,102106.47
2023-04-09T00:40:08.739Z,102102.19
2023-04-09T00:42:37.599Z,102107.66
2023-04-09T00:45:06.518Z,102103.28
2023-04-09T00:47:35.337Z,102100.00
2023-04-09T00:50:03.760Z,102097.56
2023-04-09T00:52:31.564Z,102086.22
2023-04-09T00:55:05.335Z,102088.09
2023-04-09T00:57:33.085Z,102090.91
2023-04-09T01:00:00.768Z,102081.38
2023-04-09T01:02:28.768Z,102078.78
2023-04-09T01:04:56.935Z,102073.66
2023-04-09T01:07:31.239Z,102077.34
2023-04-09T01:10:11.188Z,102073.03
2023-04-09T01:12:53.515Z,102066.16
2023-04-09T01:15:30.097Z,102064.59
2023-04-09T01:18:19.213Z,102058.56
2023-04-09T01:20:58.570Z,102054.22
2023-04-09T01:23:56.211Z,102055.16
2023-04-09T01:26:54.165Z,102058.72
2023-04-09T01:29:26.166Z,102052.72
2023-04-09T01:31:55.336Z,102049.22
2023-04-09T01:34:23.255Z,102038.66
2023-04-09T01:36:55.717Z,102034.28
2023-04-09T01:39:24.033Z,102036.16
2023-04-09T01:41:52.387Z,102032.56
2023-04-09T01:44:20.880Z,102030.75
2023-04-09T01:46:50.092Z,102029.03
2023-04-09T01:49:18.512Z,102044.13
2023-04-09T01:51:47.908Z,102039.69
2023-04-09T01:54:16.998Z,102043.28
2023-04-09T01:56:46.397Z,102039.75
2023-04-09T01:59:14.612Z,102037.97
2023-04-09T02:02:02.496Z,102038.88
2023-04-09T02:04:37.027Z,102040.63
2023-04-09T02:07:15.482Z,102038.13
2023-04-09T02:09:45.656Z,102033.72
2023-04-09T02:12:17.622Z,102033.72
2023-04-09T02:14:52.009Z,102026.59
2023-04-09T02:17:20.323Z,102031.06
2023-04-09T02:19:48.740Z,102024.03
2023-04-09T02:22:17.371Z,102016.16
2023-04-09T02:24:46.708Z,102013.56
2023-04-09T02:27:14.355Z,102009.19
2023-04-09T02:29:42.528Z,102007.56
2023-04-09T02:32:10.339Z,102007.56
2023-04-09T02:34:37.882Z,101999.75
2023-04-09T02:37:05.455Z,102005.22
2023-04-09T02:39:33.659Z,101996.38
2023-04-09T02:42:01.494Z,101994.75
2023-04-09T02:44:29.197Z,101994.91
2023-04-09T02:46:57.467Z,101997.72
2023-04-09T02:49:25.171Z,101998.56
2023-04-09T02:51:52.824Z,101995.16
2023-04-09T02:54:20.488Z,101994.34
2023-04-09T02:56:48.083Z,101993.50
2023-04-09T02:59:16.418Z,101998.91
2023-04-09T03:01:44.245Z,102001.63
2023-04-09T03:04:11.938Z,101997.25
2023-04-09T03:06:39.657Z,101996.47
2023-04-09T03:09:07.171Z,101985.00
2023-04-09T03:11:34.738Z,101991.16
2023-04-09T03:14:02.396Z,101977.09
2023-04-09T03:16:29.986Z,101977.19
2023-04-09T03:18:57.485Z,101979.94
2023-04-09T03:21:25.274Z,101966.72
2023-04-09T03:23:52.788Z,101968.50
2023-04-09T03:26:20.610Z,101959.75
2023-04-09T03:28:50.411Z,101954.44
2023-04-09T03:31:18.293Z,101951.03
2023-04-09T03:33:46.994Z,101944.06
2023-04-09T03:36:14.881Z,101943.44
2023-04-09T03:39:03.560Z,101935.63
2023-04-09T03:41:35.276Z,101942.03
2023-04-09T03:44:06.585Z,101942.97
2023-04-09T03:46:55.890Z,101937.81
2023-04-09T03:49:24.419Z,101942.34
2023-04-09T03:51:52.883Z,101934.53
2023-04-09T03:54:21.167Z,101932.13
2023-04-09T03:56:48.751Z,101947.03
2023-04-09T03:59:21.276Z,101943.44
2023-04-09T04:01:49.094Z,101934.63
2023-04-09T04:04:17.088Z,101943.34
2023-04-09T04:06:49.199Z,101937.19
2023-04-09T04:09:31.547Z,101932.81
2023-04-09T04:12:04.825Z,101927.56
2023-04-09T04:14:46.155Z,101929.38
2023-04-09T04:17:24.040Z,101926.81
2023-04-09T04:19:52.951Z,101920.78
2023-04-09T04:22:21.128Z,101922.66
2023-04-09T04:24:52.989Z,101926.16
2023-04-09T04:27:22.456Z,101914.78
2023-04-09T04:29:50.370Z,101919.22
2023-04-09T04:32:30.558Z,101924.47
2023-04-09T04:34:59.290Z,101912.03
2023-04-09T04:37:27.310Z,101905.03
2023-04-09T04:40:00.967Z,101903.28
2023-04-09T04:42:29.764Z,101903.28
2023-04-09T04:44:59.064Z,101896.25
2023-04-09T04:47:46.754Z,101896.34
2023-04-09T04:50:15.231Z,101899.94
2023-04-09T04:52:53.985Z,101894.63
2023-04-09T04:55:24.323Z,101884.09
2023-04-09T04:57:52.723Z,101886.81
2023-04-09T05:00:23.829Z,101880.59
2023-04-09T05:02:51.886Z,101882.22
2023-04-09T05:05:42.878Z,101879.47
2023-04-09T05:08:11.001Z,101871.44
2023-04-09T05:10:41.784Z,101877.63
2023-04-09T05:13:09.643Z,101873.06
2023-04-09T05:15:40.743Z,101877.47
2023-04-09T05:18:10.478Z,101868.56
2023-04-09T05:20:38.279Z,101866.75
2023-04-09T05:23:12.712Z,101866.69
2023-04-09T05:25:49.770Z,101860.44
2023-04-09T05:28:25.246Z,101872.69
2023-04-09T05:31:03.568Z,101863.69
2023-04-09T05:33:37.842Z,101864.47
2023-04-09T05:36:17.026Z,101862.50
2023-04-09T05:38:46.492Z,101858.91
2023-04-09T05:41:14.885Z,101855.25
2023-04-09T05:43:53.619Z,101854.31
2023-04-09T05:46:21.722Z,101858.75
2023-04-09T05:48:51.358Z,101864.06
2023-04-09T05:51:19.087Z,101861.56
2023-04-09T05:53:47.209Z,101850.94
2023-04-09T05:56:16.006Z,101853.69
2023-04-09T05:58:53.150Z,101854.66
2023-04-09T06:01:21.172Z,101855.56
2023-04-09T06:03:49.291Z,101856.44
2023-04-09T06:06:17.302Z,101844.94
2023-04-09T06:08:45.202Z,101839.47
2023-04-09T06:11:13.478Z,101853.38
2023-04-09T06:13:41.585Z,101846.16
2023-04-09T06:16:10.306Z,101843.44
2023-04-09T06:18:37.995Z,101840.78
2023-04-09T06:21:07.075Z,101838.19
2023-04-09T06:23:36.383Z,101847.22
2023-04-09T06:26:03.940Z,101833.25
2023-04-09T06:28:32.478Z,101837.09
2023-04-09T06:31:00.047Z,101832.91
2023-04-09T06:33:27.631Z,101838.22
2023-04-09T06:35:55.552Z,101838.19
2023-04-09T06:38:23.262Z,101824.81
2023-04-09T06:40:50.815Z,101813.78
2023-04-09T06:43:18.344Z,101820.38
2023-04-09T06:45:51.045Z,101812.28
2023-04-09T06:48:18.711Z,101806.53
2023-04-09T06:50:46.303Z,101819.50
2023-04-09T06:53:15.566Z,101824.88
2023-04-09T06:55:43.317Z,101812.88
2023-04-09T06:58:10.871Z,101820.25
2023-04-09T07:00:38.410Z,101814.84
2023-04-09T07:03:08.189Z,101824.34
2023-04-09T07:05:36.631Z,101824.47
2023-04-09T07:08:04.346Z,101837.38
2023-04-09T07:10:32.280Z,101834.53
2023-04-09T07:12:59.819Z,101828.94
2023-04-09T07:15:27.513Z,101829.22
2023-04-09T07:17:55.200Z,101832.59
2023-04-09T07:20:22.775Z,101833.81
2023-04-09T07:22:50.399Z,101834.50
2023-04-09T07:25:18.154Z,101836.50
2023-04-09T07:27:45.821Z,101826.09
2023-04-09T07:30:13.428Z,101828.13
2023-04-09T07:32:41.037Z,101832.25
2023-04-09T07:35:09.895Z,101833.84
2023-04-09T07:37:37.517Z,101827.25
2023-04-09T07:40:06.116Z,101827.78
2023-04-09T07:42:33.960Z,101819.56
2023-04-09T07:45:03.475Z,101824.22
2023-04-09T07:47:32.031Z,101817.56
2023-04-09T07:49:59.620Z,101812.41
2023-04-09T07:52:27.316Z,101817.97
2023-04-09T07:54:54.914Z,101813.88
2023-04-09T07:57:22.471Z,101800.38
2023-04-09T07:59:50.086Z,101807.56
2023-04-09T08:02:17.961Z,101805.00
2023-04-09T08:04:45.804Z,101792.63
2023-04-09T08:07:13.444Z,101787.22
2023-04-09T08:09:41.120Z,101785.41
2023-04-09T08:12:08.721Z,101784.72
2023-04-09T08:14:36.233Z,101779.22
2023-04-09T08:17:04.773Z,101773.00
2023-04-09T08:19:32.442Z,101781.88
2023-04-09T08:22:01.035Z,101776.00
2023-04-09T08:24:28.594Z,101769.00
2023-04-09T08:26:57.792Z,101764.47
2023-04-09T08:29:25.352Z,101771.03
2023-04-09T08:31:52.953Z,101756.19
2023-04-09T08:34:22.187Z,101754.44
2023-04-09T08:36:50.087Z,101759.88
2023-04-09T08:39:21.071Z,101740.03
2023-04-09T08:41:49.341Z,101743.06
2023-04-09T08:44:17.717Z,101742.94
2023-04-09T08:46:45.384Z,101734.25
2023-04-09T08:49:13.095Z,101725.06
2023-04-09T08:51:46.428Z,101717.75
2023-04-09T08:54:20.067Z,101730.44
2023-04-09T08:56:48.165Z,101719.22
2023-04-09T08:59:18.410Z,101716.41
2023-04-09T09:01:48.147Z,101715.22
2023-04-09T09:04:15.907Z,101704.91
2023-04-09T09:06:44.386Z,101709.69
2023-04-09T09:09:14.671Z,101703.78
2023-04-09T09:11:47.081Z,101696.63
2023-04-09T09:14:19.176Z,101687.97
2023-04-09T09:16:56.165Z,101698.88
2023-04-09T09:19:27.578Z,101686.78
2023-04-09T09:21:56.832Z,101670.50
2023-04-09T09:24:24.447Z,101664.28
2023-04-09T09:26:52.738Z,101666.53
2023-04-09T09:29:21.298Z,101656.44
2023-04-09T09:31:51.191Z,101661.25
2023-04-09T09:34:21.145Z,101654.28
2023-04-09T09:36:49.175Z,101651.78
2023-04-09T09:39:17.814Z,101638.03
2023-04-09T09:41:46.593Z,101629.41
2023-04-09T09:44:31.967Z,101620.38
2023-04-09T09:46:59.762Z,101618.59
2023-04-09T09:49:27.277Z,101603.53
2023-04-09T09:51:57.951Z,101604.19
2023-04-09T09:54:27.228Z,101596.94
2023-04-09T09:57:02.202Z,101589.22
2023-04-09T09:59:34.610Z,101574.97
2023-04-09T10:02:06.141Z,101572.03
2023-04-09T10:04:36.073Z,101569.16
2023-04-09T10:07:07.795Z,101570.75
2023-04-09T10:09:41.616Z,101558.47
2023-04-09T10:12:11.595Z,101557.81
2023-04-09T10:14:40.338Z,101544.50
2023-04-09T10:17:08.016Z,101548.22
2023-04-09T10:19:44.640Z,101541.56
2023-04-09T10:22:16.543Z,101544.38
2023-04-09T10:24:44.992Z,101535.50
2023-04-09T10:27:16.106Z,101528.72
2023-04-09T10:29:47.114Z,101540.38
2023-04-09T10:32:26.899Z,101535.03
2023-04-09T10:35:01.894Z,101528.00
2023-04-09T10:37:29.987Z,101525.16
2023-04-09T10:39:58.067Z,101537.59
2023-04-09T10:42:40.274Z,101530.09
2023-04-09T10:45:12.179Z,101528.81
2023-04-09T10:47:42.640Z,101529.25
2023-04-09T10:50:25.562Z,101525.13
2023-04-09T10:52:56.659Z,101524.50
2023-04-09T10:55:38.415Z,101522.06
2023-04-09T10:58:10.461Z,101521.06
2023-04-09T11:00:44.685Z,101530.13
2023-04-09T11:03:25.783Z,101519.78
2023-04-09T11:06:11.809Z,101513.41
2023-04-09T11:08:39.508Z,101512.06
2023-04-09T11:11:07.315Z,101513.03
2023-04-09T11:13:35.020Z,101517.50
2023-04-09T11:16:06.983Z,101510.59
2023-04-09T11:18:37.094Z,101502.72
2023-04-09T11:21:05.084Z,101510.56
2023-04-09T11:23:34.174Z,101498.34
2023-04-09T11:26:05.425Z,101500.91
2023-04-09T11:28:34.954Z,101498.22
2023-04-09T11:31:05.492Z,101504.16
2023-04-09T11:33:34.391Z,101497.59
2023-04-09T11:36:06.538Z,101498.84
2023-04-09T11:38:34.303Z,101493.78
2023-04-09T11:41:02.218Z,101488.22
2023-04-09T11:43:29.801Z,101479.66
2023-04-09T11:45:57.902Z,101486.25
2023-04-09T11:48:25.766Z,101483.34
2023-04-09T11:50:53.805Z,101471.66
2023-04-09T11:53:23.388Z,101467.66
2023-04-09T11:55:52.442Z,101473.59
2023-04-09T11:58:24.823Z,101464.41
2023-04-09T12:00:58.272Z,101460.31
2023-04-09T12:03:37.454Z,101444.31
2023-04-09T12:06:09.409Z,101430.56
2023-04-09T12:08:37.624Z,101425.06
2023-04-09T12:11:12.188Z,101443.19
2023-04-09T12:13:45.906Z,101436.31
2023-04-09T12:16:14.673Z,101434.69
2023-04-09T12:18:42.567Z,101438.38
2023-04-09T12:21:10.904Z,101430.72
2023-04-09T12:23:38.583Z,101427.78
2023-04-09T12:26:06.157Z,101416.16
2023-04-09T12:28:33.710Z,101419.00
2023-04-09T12:31:02.807Z,101412.50
2023-04-09T12:33:30.552Z,101404.13
2023-04-09T12:35:58.500Z,101407.97
2023-04-09T12:38:26.883Z,101391.66
2023-04-09T12:40:54.483Z,101382.75
2023-04-09T12:43:22.066Z,101378.94
2023-04-09T12:45:49.632Z,101380.22
2023-04-09T12:48:17.280Z,101382.34
2023-04-09T12:50:45.503Z,101383.91
2023-04-09T12:53:13.104Z,101368.59
2023-04-09T12:55:42.664Z,101370.28
2023-04-09T12:58:10.464Z,101368.84
2023-04-09T13:00:38.056Z,101362.63
2023-04-09T13:03:05.767Z,101359.63
2023-04-09T13:05:35.682Z,101361.75
2023-04-09T13:08:03.615Z,101360.44
2023-04-09T13:10:31.557Z,101362.34
2023-04-09T13:12:59.297Z,101354.97
2023-04-09T13:15:27.468Z,101349.00
2023-04-09T13:17:56.217Z,101347.00
2023-04-09T13:20:23.877Z,101341.63
2023-04-09T13:22:52.466Z,101343.06
2023-04-09T13:25:20.075Z,101341.59
2023-04-09T13:27:47.791Z,101329.81
2023-04-09T13:30:16.092Z,101321.16
2023-04-09T13:32:43.904Z,101322.34
2023-04-09T13:35:11.837Z,101328.16
2023-04-09T13:37:39.411Z,101314.84
2023-04-09T13:40:09.117Z,101304.22
2023-04-09T13:42:37.702Z,101298.56
2023-04-09T13:45:06.101Z,101295.47
2023-04-09T13:47:33.822Z,101282.19
2023-04-09T13:50:01.614Z,101289.13
2023-04-09T13:52:29.905Z,101280.22
2023-04-09T13:54:57.534Z,101279.38
2023-04-09T13:57:25.170Z,101277.41
2023-04-09T13:59:52.740Z,101285.97
2023-04-09T14:02:20.880Z,101263.63
2023-04-09T14:04:48.706Z,101263.22
2023-04-09T14:07:16.582Z,101251.19
2023-04-09T14:09:44.189Z,101251.88
2023-04-09T14:12:11.841Z,101249.59
2023-04-09T14:14:39.406Z,101245.16
2023-04-09T14:17:07.362Z,101251.03
2023-04-09T14:19:34.976Z,101234.31
2023-04-09T14:22:03.309Z,101233.72
2023-04-09T14:24:30.830Z,101234.19
2023-04-09T14:26:59.613Z,101227.72
2023-04-09T14:29:27.105Z,101238.31
2023-04-09T14:31:57.156Z,101223.59
2023-04-09T14:34:24.962Z,101219.47
2023-04-09T14:36:52.544Z,101216.50
2023-04-09T14:39:20.351Z,101201.59
2023-04-09T14:41:48.380Z,101214.16
2023-04-09T14:44:16.198Z,101217.75
2023-04-09T14:46:44.218Z,101204.28
2023-04-09T14:49:11.857Z,101192.13
2023-04-09T14:51:39.515Z,101193.91
2023-04-09T14:54:07.469Z,101204.91
2023-04-09T14:56:35.089Z,101195.75
2023-04-09T14:59:02.725Z,101190.59
2023-04-09T15:01:32.989Z,101187.34
2023-04-09T15:04:01.036Z,101184.38
2023-04-09T15:06:29.634Z,101165.72
2023-04-09T15:08:57.288Z,101170.81
2023-04-09T15:11:24.834Z,101165.44
2023-04-09T15:13:52.465Z,101148.69
2023-04-09T15:16:24.830Z,101153.50
2023-04-09T15:18:55.776Z,101151.69
2023-04-09T15:21:24.060Z,101136.84
2023-04-09T15:23:52.291Z,101140.44
2023-04-09T15:26:20.823Z,101127.56
2023-04-09T15:28:48.481Z,101125.53
2023-04-09T15:31:16.265Z,101117.25
2023-04-09T15:33:44.827Z,101115.63
2023-04-09T15:36:12.620Z,101114.38
2023-04-09T15:38:40.143Z,101097.84
2023-04-09T15:41:07.749Z,101102.53
2023-04-09T15:43:35.864Z,101097.84
2023-04-09T15:46:12.573Z,101097.53
2023-04-09T15:48:40.224Z,101099.78
2023-04-09T15:51:08.077Z,101089.03
2023-04-09T15:53:35.710Z,101085.63
2023-04-09T15:56:04.231Z,101081.38
2023-04-09T15:58:32.266Z,101071.50
2023-04-09T16:00:59.873Z,101066.81
2023-04-09T16:03:27.928Z,101070.88
2023-04-09T16:05:55.441Z,101063.19
2023-04-09T16:08:23.150Z,101062.91
2023-04-09T16:10:52.077Z,101061.22
2023-04-09T16:13:19.696Z,101048.38
2023-04-09T16:15:49.432Z,101056.88
2023-04-09T16:18:18.503Z,101056.66
2023-04-09T16:20:46.540Z,101048.50
2023-04-09T16:23:14.112Z,101046.56
2023-04-09T16:25:41.689Z,101041.22
2023-04-09T16:28:09.254Z,101044.16
2023-04-09T16:30:37.669Z,101026.38
2023-04-09T16:33:05.504Z,101031.94
2023-04-09T16:35:33.068Z,101016.13
2023-04-09T16:38:00.704Z,101010.66
2023-04-09T16:40:28.431Z,101011.50
2023-04-09T16:42:56.133Z,101002.72
2023-04-09T16:45:23.971Z,101004.28
2023-04-09T16:47:53.982Z,101007.81
2023-04-09T16:50:22.457Z,100995.38
2023-04-09T16:52:50.229Z,101000.50
2023-04-09T16:55:17.911Z,100996.84
2023-04-09T16:57:45.511Z,100994.63
2023-04-09T17:00:13.471Z,100989.53
2023-04-09T17:02:41.071Z,100994.06
2023-04-09T17:05:09.334Z,100986.31
2023-04-09T17:07:37.189Z,100982.25
2023-04-09T17:10:05.724Z,100972.91
2023-04-09T17:12:33.428Z,100976.75
2023-04-09T17:15:01.250Z,100962.47
2023-04-09T17:17:28.886Z,100959.91
2023-04-09T17:19:58.477Z,100959.25
2023-04-09T17:22:26.077Z,100952.88
2023-04-09T17:24:53.910Z,100936.22
2023-04-09T17:27:21.894Z,100937.34
2023-04-09T17:29:49.449Z,100926.91
2023-04-09T17:32:17.161Z,100920.41
2023-04-09T17:34:48.487Z,100921.41
2023-04-09T17:37:16.382Z,100921.13
2023-04-09T17:39:43.918Z,100913.06
2023-04-09T17:42:14.675Z,100907.69
2023-04-09T17:44:43.905Z,100907.16
2023-04-09T17:47:12.411Z,100898.53
2023-04-09T17:49:40.406Z,100903.78
2023-04-09T17:52:08.265Z,100891.13
2023-04-09T17:54:35.953Z,100884.63
2023-04-09T17:57:04.695Z,100877.88
2023-04-09T17:59:32.458Z,100874.50
2023-04-09T18:02:00.985Z,100864.75
2023-04-09T18:04:28.941Z,100859.53
2023-04-09T18:06:56.743Z,100856.69
2023-04-09T18:09:24.312Z,100867.59
2023-04-09T18:11:56.552Z,100854.59
2023-04-09T18:14:24.224Z,100842.63
2023-04-09T18:16:51.961Z,100841.75
2023-04-09T18:19:19.615Z,100837.13
2023-04-09T18:21:47.478Z,100834.03
2023-04-09T18:24:15.232Z,100831.81
2023-04-09T18:26:42.864Z,100837.59
2023-04-09T18:29:10.653Z,100828.25
2023-04-09T18:31:38.232Z,100837.03
2023-04-09T18:34:05.949Z,100837.19
2023-04-09T18:36:33.646Z,100841.53
2023-04-09T18:39:01.375Z,100830.56
2023-04-09T18:41:30.243Z,100838.03
2023-04-09T18:43:57.937Z,100827.03
2023-04-09T18:46:25.671Z,100831.44
2023-04-09T18:48:53.474Z,100822.25
2023-04-09T18:51:21.172Z,100827.03
2023-04-09T18:53:55.190Z,100808.56
2023-04-09T18:56:22.753Z,100802.53
2023-04-09T18:58:53.652Z,100808.28
2023-04-09T19:01:22.078Z,100803.09
2023-04-09T19:03:49.826Z,100794.63
2023-04-09T19:06:19.089Z,100779.09
2023-04-09T19:08:47.919Z,100782.94
2023-04-09T19:11:16.299Z,100781.09
2023-04-09T19:13:43.831Z,100773.19
2023-04-09T19:16:11.514Z,100760.66
2023-04-09T19:18:39.048Z,100755.28
2023-04-09T19:21:08.164Z,100758.84
2023-04-09T19:23:35.950Z,100757.13
2023-04-09T19:26:03.952Z,100748.13
2023-04-09T19:28:32.289Z,100751.38
2023-04-09T19:31:02.055Z,100751.38
2023-04-09T19:33:31.017Z,100758.13
2023-04-09T19:35:58.539Z,100762.63
2023-04-09T19:38:26.366Z,100757.00
2023-04-09T19:40:53.929Z,100756.84
2023-04-09T19:43:21.519Z,100760.25
2023-04-09T19:45:49.066Z,100752.06
2023-04-09T19:48:16.906Z,100744.88
2023-04-09T19:50:45.348Z,100728.81
2023-04-09T19:53:13.028Z,100709.50
2023-04-09T19:55:40.903Z,100717.41
2023-04-09T19:58:08.419Z,100707.81
2023-04-09T20:00:36.432Z,100695.28
2023-04-09T20:03:05.964Z,100701.75
2023-04-09T20:05:34.075Z,100687.25
2023-04-09T20:08:01.596Z,100669.22
2023-04-09T20:10:29.210Z,100674.41
2023-04-09T20:12:56.752Z,100673.75
2023-04-09T20:15:24.390Z,100660.34
2023-04-09T20:17:52.835Z,100671.91
2023-04-09T20:20:20.897Z,100670.06
2023-04-09T20:22:56.338Z,100673.75
2023-04-09T20:25:25.626Z,100668.50
2023-04-09T20:27:54.237Z,100658.63
2023-04-09T20:30:22.720Z,100651.59
2023-04-09T20:32:50.484Z,100675.69
2023-04-09T20:35:18.274Z,100670.50
2023-04-09T20:37:48.419Z,100669.34
2023-04-09T20:40:16.594Z,100663.88
2023-04-09T20:42:44.308Z,100642.75
2023-04-09T20:45:12.253Z,100649.09
2023-04-09T20:47:39.794Z,100644.69
2023-04-09T20:50:07.820Z,100640.19
2023-04-09T20:52:35.506Z,100642.03
2023-04-09T20:55:03.203Z,100635.84
2023-04-09T20:57:30.739Z,100634.00
2023-04-09T20:59:58.388Z,100620.59
2023-04-09T21:02:26.094Z,100626.69
2023-04-09T21:04:53.998Z,100611.75
2023-04-09T21:07:21.628Z,100620.59
2023-04-09T21:09:49.301Z,100624.28
2023-04-09T21:12:16.910Z,100611.75
2023-04-09T21:14:44.537Z,100609.22
2023-04-09T21:17:12.095Z,100610.06
2023-04-09T21:19:39.897Z,100595.41
2023-04-09T21:22:07.428Z,100602.44
2023-04-09T21:24:35.434Z,100604.00
2023-04-09T21:27:06.934Z,100590.91
2023-04-09T21:29:37.404Z,100591.22
2023-04-09T21:32:05.189Z,100581.34
2023-04-09T21:34:32.913Z,100580.81
2023-04-09T21:37:02.738Z,100583.19
2023-04-09T21:39:30.405Z,100579.66
2023-04-09T21:41:58.269Z,100573.34
2023-04-09T21:44:25.838Z,100573.75
2023-04-09T21:46:53.473Z,100567.69
2023-04-09T21:49:21.327Z,100566.00
2023-04-09T21:51:48.900Z,100557.44
2023-04-09T21:54:16.461Z,100548.69
2023-04-09T21:56:44.028Z,100552.25
2023-04-09T21:59:11.559Z,100544.91
2023-04-09T22:01:39.268Z,100551.66
2023-04-09T22:04:07.036Z,100539.84
2023-04-09T22:06:34.659Z,100537.06
2023-04-09T22:09:02.438Z,100521.56
2023-04-09T22:11:30.507Z,100520.72
2023-04-09T22:13:58.446Z,100498.34
2023-04-09T22:16:26.649Z,100493.72
2023-04-09T22:18:54.853Z,100499.91
2023-04-09T22:21:22.793Z,100490.03
2023-04-09T22:23:50.466Z,100475.66
2023-04-09T22:26:18.041Z,100482.41
2023-04-09T22:28:45.763Z,100482.13
2023-04-09T22:31:13.625Z,100472.97
2023-04-09T22:33:41.584Z,100468.34
2023-04-09T22:36:09.227Z,100462.16
2023-04-09T22:38:36.957Z,100470.47
2023-04-09T22:41:04.709Z,100461.34
2023-04-09T22:43:32.275Z,100453.16
2023-04-09T22:45:59.968Z,100461.03
2023-04-09T22:48:28.963Z,100451.88
2023-04-09T22:50:57.870Z,100449.06
2023-04-09T22:53:25.456Z,100433.88
2023-04-09T22:55:54.942Z,100435.72
2023-04-09T22:58:22.568Z,100429.09
2023-04-09T23:00:50.842Z,100431.22
2023-04-09T23:03:18.869Z,100429.66
2023-04-09T23:05:46.580Z,100430.78
2023-04-09T23:08:14.307Z,100421.94
2023-04-09T23:10:41.889Z,100420.09
2023-04-09T23:13:13.992Z,100415.03
2023-04-09T23:15:42.143Z,100414.50
2023-04-09T23:18:10.109Z,100405.38
2023-04-09T23:20:37.778Z,100412.41
2023-04-09T23:23:05.488Z,100414.25
2023-04-09T23:25:33.140Z,100401.44
2023-04-09T23:28:00.784Z,100404.13
2023-04-09T23:30:28.411Z,100385.41
2023-04-09T23:32:57.658Z,100377.84
2023-04-09T23:35:25.497Z,100382.63
2023-04-09T23:37:53.084Z,100374.75
2023-04-09T23:40:20.817Z,100362.09
2023-04-09T23:42:49.208Z,100363.94
2023-04-09T23:45:16.874Z,100354.91
2023-04-09T23:47:44.552Z,100349.44
2023-04-09T23:50:12.235Z,100338.75
2023-04-09T23:52:45.648Z,100345.94
2023-04-09T23:55:13.881Z,100334.25
2023-04-09T23:57:42.623Z,100328.75
